sensor_id;sensor_type;location;lat;lon;timestamp;pressure;altitude;pressure_sealevel;temperature;humidity
56825;BME280;42705;50.326;18.772;2023-08-07T00:02:30;97257.86;;;14.17;82.56
56825;BME280;42705;50.326;18.772;2023-08-07T00:07:52;97254.39;;;14.18;82.47
56825;BME280;42705;50.326;18.772;2023-08-07T00:13:14;97256.73;;;14.22;82.49
56825;BME280;42705;50.326;18.772;2023-08-07T00:18:36;97256.91;;;14.31;82.60
56825;BME280;42705;50.326;18.772;2023-08-07T00:23:57;97254.56;;;14.44;82.52
56825;BME280;42705;50.326;18.772;2023-08-07T00:29:19;97251.92;;;14.59;82.37
56825;BME280;42705;50.326;18.772;2023-08-07T00:34:41;97248.27;;;14.73;82.23
56825;BME280;42705;50.326;18.772;2023-08-07T00:40:03;97246.63;;;14.82;81.95
56825;BME280;42705;50.326;18.772;2023-08-07T00:45:25;97240.75;;;14.85;81.58
56825;BME280;42705;50.326;18.772;2023-08-07T00:50:49;97236.85;;;14.87;81.46
56825;BME280;42705;50.326;18.772;2023-08-07T00:56:12;97232.30;;;14.85;81.32
56825;BME280;42705;50.326;18.772;2023-08-07T01:01:34;97231.48;;;14.93;81.47
56825;BME280;42705;50.326;18.772;2023-08-07T01:06:58;97229.30;;;15.03;81.21
56825;BME280;42705;50.326;18.772;2023-08-07T01:12:28;97227.83;;;15.02;80.92
56825;BME280;42705;50.326;18.772;2023-08-07T01:17:52;97226.66;;;14.92;80.27
56825;BME280;42705;50.326;18.772;2023-08-07T01:23:15;97224.73;;;14.77;80.43
56825;BME280;42705;50.326;18.772;2023-08-07T01:28:42;97230.39;;;14.67;80.51
56825;BME280;42705;50.326;18.772;2023-08-07T01:34:10;97234.38;;;14.55;80.51
56825;BME280;42705;50.326;18.772;2023-08-07T01:39:35;97239.92;;;14.44;81.09
56825;BME280;42705;50.326;18.772;2023-08-07T01:44:58;97243.09;;;14.45;81.25
56825;BME280;42705;50.326;18.772;2023-08-07T01:50:22;97236.79;;;14.42;81.42
56825;BME280;42705;50.326;18.772;2023-08-07T01:55:44;97231.07;;;14.35;81.40
56825;BME280;42705;50.326;18.772;2023-08-07T02:01:07;97236.34;;;14.27;81.49
56825;BME280;42705;50.326;18.772;2023-08-07T02:06:29;97235.09;;;14.16;81.57
56825;BME280;42705;50.326;18.772;2023-08-07T02:11:50;97232.48;;;14.01;81.71
56825;BME280;42705;50.326;18.772;2023-08-07T02:17:12;97231.73;;;13.93;82.14
56825;BME280;42705;50.326;18.772;2023-08-07T02:22:34;97232.03;;;13.89;82.52
56825;BME280;42705;50.326;18.772;2023-08-07T02:27:56;97228.23;;;13.83;82.64
56825;BME280;42705;50.326;18.772;2023-08-07T02:33:18;97230.71;;;13.84;82.89
56825;BME280;42705;50.326;18.772;2023-08-07T02:38:40;97232.30;;;13.85;83.04
56825;BME280;42705;50.326;18.772;2023-08-07T02:44:01;97238.92;;;13.84;83.25
56825;BME280;42705;50.326;18.772;2023-08-07T02:49:23;97239.20;;;13.79;83.20
56825;BME280;42705;50.326;18.772;2023-08-07T02:54:46;97244.78;;;13.78;83.55
56825;BME280;42705;50.326;18.772;2023-08-07T03:00:08;97242.42;;;13.76;83.43
56825;BME280;42705;50.326;18.772;2023-08-07T03:05:31;97244.80;;;13.76;83.71
56825;BME280;42705;50.326;18.772;2023-08-07T03:10:55;97245.83;;;13.75;83.95
56825;BME280;42705;50.326;18.772;2023-08-07T03:16:19;97249.60;;;13.73;84.10
56825;BME280;42705;50.326;18.772;2023-08-07T03:21:40;97246.25;;;13.75;84.22
56825;BME280;42705;50.326;18.772;2023-08-07T03:27:03;97251.59;;;13.78;84.44
56825;BME280;42705;50.326;18.772;2023-08-07T03:32:25;97256.33;;;13.83;84.36
56825;BME280;42705;50.326;18.772;2023-08-07T03:37:47;97256.56;;;13.82;84.53
56825;BME280;42705;50.326;18.772;2023-08-07T03:43:09;97256.88;;;13.82;84.60
56825;BME280;42705;50.326;18.772;2023-08-07T03:48:32;97262.57;;;13.80;84.44
56825;BME280;42705;50.326;18.772;2023-08-07T03:53:54;97265.70;;;13.76;84.62
56825;BME280;42705;50.326;18.772;2023-08-07T03:59:17;97266.36;;;13.79;84.77
56825;BME280;42705;50.326;18.772;2023-08-07T04:04:39;97276.92;;;13.76;84.82
56825;BME280;42705;50.326;18.772;2023-08-07T04:10:00;97279.84;;;13.71;85.00
56825;BME280;42705;50.326;18.772;2023-08-07T04:15:22;97281.86;;;13.70;85.27
56825;BME280;42705;50.326;18.772;2023-08-07T04:20:55;97287.84;;;13.73;85.22
56825;BME280;42705;50.326;18.772;2023-08-07T04:26:17;97290.55;;;13.70;85.06
56825;BME280;42705;50.326;18.772;2023-08-07T04:31:39;97289.47;;;13.63;85.30
56825;BME280;42705;50.326;18.772;2023-08-07T04:37:01;97288.69;;;13.62;85.74
56825;BME280;42705;50.326;18.772;2023-08-07T04:42:23;97288.99;;;13.68;85.95
56825;BME280;42705;50.326;18.772;2023-08-07T04:47:45;97293.68;;;13.71;85.91
56825;BME280;42705;50.326;18.772;2023-08-07T04:53:07;97293.60;;;13.72;85.97
56825;BME280;42705;50.326;18.772;2023-08-07T04:58:29;97296.27;;;13.70;86.16
56825;BME280;42705;50.326;18.772;2023-08-07T05:03:51;97299.99;;;13.71;86.29
56825;BME280;42705;50.326;18.772;2023-08-07T05:09:13;97306.23;;;13.70;86.22
56825;BME280;42705;50.326;18.772;2023-08-07T05:14:34;97311.70;;;13.72;86.23
56825;BME280;42705;50.326;18.772;2023-08-07T05:19:56;97312.53;;;13.78;85.92
56825;BME280;42705;50.326;18.772;2023-08-07T05:25:18;97310.30;;;13.86;85.85
56825;BME280;42705;50.326;18.772;2023-08-07T05:30:42;97312.80;;;13.92;85.56
56825;BME280;42705;50.326;18.772;2023-08-07T05:36:05;97311.21;;;13.96;85.08
56825;BME280;42705;50.326;18.772;2023-08-07T05:41:27;97317.67;;;14.06;85.14
56825;BME280;42705;50.326;18.772;2023-08-07T05:46:49;97318.30;;;14.14;85.06
56825;BME280;42705;50.326;18.772;2023-08-07T05:52:11;97320.64;;;14.13;84.80
56825;BME280;42705;50.326;18.772;2023-08-07T05:57:34;97323.42;;;14.15;84.79
56825;BME280;42705;50.326;18.772;2023-08-07T06:02:55;97325.48;;;14.17;84.22
56825;BME280;42705;50.326;18.772;2023-08-07T06:08:17;97328.45;;;14.22;84.24
56825;BME280;42705;50.326;18.772;2023-08-07T06:13:42;97339.52;;;14.23;83.94
56825;BME280;42705;50.326;18.772;2023-08-07T06:19:05;97342.11;;;14.22;83.76
56825;BME280;42705;50.326;18.772;2023-08-07T06:24:28;97344.56;;;14.24;83.80
56825;BME280;42705;50.326;18.772;2023-08-07T06:29:50;97351.80;;;14.23;83.74
56825;BME280;42705;50.326;18.772;2023-08-07T06:35:12;97354.45;;;14.23;83.77
56825;BME280;42705;50.326;18.772;2023-08-07T06:40:37;97349.91;;;14.20;83.60
56825;BME280;42705;50.326;18.772;2023-08-07T06:46:02;97352.33;;;14.18;83.58
56825;BME280;42705;50.326;18.772;2023-08-07T06:51:25;97358.48;;;14.22;83.58
56825;BME280;42705;50.326;18.772;2023-08-07T06:56:46;97357.94;;;14.24;83.55
56825;BME280;42705;50.326;18.772;2023-08-07T07:02:08;97358.73;;;14.22;83.62
56825;BME280;42705;50.326;18.772;2023-08-07T07:07:30;97360.79;;;14.33;83.41
56825;BME280;42705;50.326;18.772;2023-08-07T07:12:52;97366.61;;;14.47;83.50
56825;BME280;42705;50.326;18.772;2023-08-07T07:18:14;97368.31;;;14.57;83.05
56825;BME280;42705;50.326;18.772;2023-08-07T07:23:36;97375.85;;;14.67;83.10
56825;BME280;42705;50.326;18.772;2023-08-07T07:28:57;97383.20;;;14.73;82.94
56825;BME280;42705;50.326;18.772;2023-08-07T07:34:19;97386.91;;;14.63;82.70
56825;BME280;42705;50.326;18.772;2023-08-07T07:39:41;97391.89;;;14.53;82.81
56825;BME280;42705;50.326;18.772;2023-08-07T07:45:04;97398.29;;;14.49;83.04
56825;BME280;42705;50.326;18.772;2023-08-07T07:50:26;97401.31;;;14.42;83.20
56825;BME280;42705;50.326;18.772;2023-08-07T07:55:48;97407.60;;;14.41;82.95
56825;BME280;42705;50.326;18.772;2023-08-07T08:01:10;97411.35;;;14.46;83.27
56825;BME280;42705;50.326;18.772;2023-08-07T08:06:31;97415.45;;;14.56;83.29
56825;BME280;42705;50.326;18.772;2023-08-07T08:11:53;97420.04;;;14.58;82.84
56825;BME280;42705;50.326;18.772;2023-08-07T08:17:15;97422.60;;;14.63;83.08
56825;BME280;42705;50.326;18.772;2023-08-07T08:22:37;97430.71;;;14.58;82.76
56825;BME280;42705;50.326;18.772;2023-08-07T08:27:59;97434.23;;;14.45;82.99
56825;BME280;42705;50.326;18.772;2023-08-07T08:33:24;97435.02;;;14.39;83.01
56825;BME280;42705;50.326;18.772;2023-08-07T08:38:45;97441.29;;;14.35;83.37
56825;BME280;42705;50.326;18.772;2023-08-07T08:44:10;97445.17;;;14.47;83.58
56825;BME280;42705;50.326;18.772;2023-08-07T08:49:43;97449.86;;;14.56;83.44
56825;BME280;42705;50.326;18.772;2023-08-07T08:55:09;97456.58;;;14.63;83.40
56825;BME280;42705;50.326;18.772;2023-08-07T09:00:31;97454.55;;;14.68;83.03
56825;BME280;42705;50.326;18.772;2023-08-07T09:05:57;97455.96;;;14.81;83.16
56825;BME280;42705;50.326;18.772;2023-08-07T09:11:20;97462.41;;;14.91;82.80
56825;BME280;42705;50.326;18.772;2023-08-07T09:16:44;97465.80;;;14.99;82.56
56825;BME280;42705;50.326;18.772;2023-08-07T09:22:07;97473.86;;;15.11;82.74
56825;BME280;42705;50.326;18.772;2023-08-07T09:27:32;97476.90;;;15.30;82.92
56825;BME280;42705;50.326;18.772;2023-08-07T09:32:57;97484.49;;;15.31;82.20
56825;BME280;42705;50.326;18.772;2023-08-07T09:38:22;97492.40;;;15.23;82.17
56825;BME280;42705;50.326;18.772;2023-08-07T09:43:44;97494.80;;;15.23;82.22
56825;BME280;42705;50.326;18.772;2023-08-07T09:49:07;97511.85;;;15.23;82.39
56825;BME280;42705;50.326;18.772;2023-08-07T09:54:31;97522.98;;;15.17;81.94
56825;BME280;42705;50.326;18.772;2023-08-07T09:59:54;97531.58;;;15.12;81.23
56825;BME280;42705;50.326;18.772;2023-08-07T10:05:16;97523.91;;;15.01;80.68
56825;BME280;42705;50.326;18.772;2023-08-07T10:10:38;97536.80;;;14.99;80.58
56825;BME280;42705;50.326;18.772;2023-08-07T10:16:00;97542.82;;;15.02;80.69
56825;BME280;42705;50.326;18.772;2023-08-07T10:21:23;97551.90;;;15.05;80.53
56825;BME280;42705;50.326;18.772;2023-08-07T10:26:46;97552.41;;;15.14;80.16
56825;BME280;42705;50.326;18.772;2023-08-07T10:32:10;97557.75;;;15.16;80.01
56825;BME280;42705;50.326;18.772;2023-08-07T10:37:44;97558.16;;;15.13;79.59
56825;BME280;42705;50.326;18.772;2023-08-07T10:43:12;97557.25;;;15.16;79.38
56825;BME280;42705;50.326;18.772;2023-08-07T10:48:45;97555.27;;;15.29;79.23
56825;BME280;42705;50.326;18.772;2023-08-07T10:54:11;97557.74;;;15.39;78.85
56825;BME280;42705;50.326;18.772;2023-08-07T10:59:33;97562.00;;;15.58;78.65
56825;BME280;42705;50.326;18.772;2023-08-07T11:04:59;97562.69;;;15.80;78.10
56825;BME280;42705;50.326;18.772;2023-08-07T11:10:21;97563.10;;;16.02;77.69
56825;BME280;42705;50.326;18.772;2023-08-07T11:15:45;97560.84;;;16.29;77.52
56825;BME280;42705;50.326;18.772;2023-08-07T11:21:08;97560.17;;;16.54;76.88
56825;BME280;42705;50.326;18.772;2023-08-07T11:26:32;97561.27;;;16.74;76.32
56825;BME280;42705;50.326;18.772;2023-08-07T11:31:54;97561.35;;;16.79;75.59
56825;BME280;42705;50.326;18.772;2023-08-07T11:37:17;97566.76;;;16.78;75.02
56825;BME280;42705;50.326;18.772;2023-08-07T11:42:42;97570.52;;;16.87;74.72
56825;BME280;42705;50.326;18.772;2023-08-07T11:48:04;97572.83;;;17.07;74.34
56825;BME280;42705;50.326;18.772;2023-08-07T11:53:29;97576.98;;;17.27;73.59
56825;BME280;42705;50.326;18.772;2023-08-07T11:58:52;97580.50;;;17.48;72.55
56825;BME280;42705;50.326;18.772;2023-08-07T12:04:17;97590.39;;;17.60;72.09
56825;BME280;42705;50.326;18.772;2023-08-07T12:09:41;97588.39;;;17.98;71.97
56825;BME280;42705;50.326;18.772;2023-08-07T12:15:09;97596.52;;;18.49;71.60
56825;BME280;42705;50.326;18.772;2023-08-07T12:20:31;97601.48;;;18.55;70.01
56825;BME280;42705;50.326;18.772;2023-08-07T12:25:54;97602.77;;;18.26;70.34
56825;BME280;42705;50.326;18.772;2023-08-07T12:31:17;97614.69;;;17.95;70.84
56825;BME280;42705;50.326;18.772;2023-08-07T12:36:39;97620.66;;;18.01;70.41
56825;BME280;42705;50.326;18.772;2023-08-07T12:42:02;97624.38;;;18.41;69.01
56825;BME280;42705;50.326;18.772;2023-08-07T12:47:26;97629.57;;;18.63;68.25
56825;BME280;42705;50.326;18.772;2023-08-07T12:52:49;97624.73;;;18.75;67.99
56825;BME280;42705;50.326;18.772;2023-08-07T12:58:11;97630.80;;;18.92;67.45
56825;BME280;42705;50.326;18.772;2023-08-07T13:03:33;97628.75;;;19.24;66.90
56825;BME280;42705;50.326;18.772;2023-08-07T13:08:55;97640.07;;;19.59;66.06
56825;BME280;42705;50.326;18.772;2023-08-07T13:14:18;97645.92;;;20.25;65.44
56825;BME280;42705;50.326;18.772;2023-08-07T13:19:40;97636.95;;;21.02;63.23
56825;BME280;42705;50.326;18.772;2023-08-07T13:25:03;97635.08;;;22.46;60.67
56825;BME280;42705;50.326;18.772;2023-08-07T13:30:25;97629.95;;;25.28;56.90
56825;BME280;42705;50.326;18.772;2023-08-07T13:35:54;97632.18;;;27.39;52.19
56825;BME280;42705;50.326;18.772;2023-08-07T13:41:16;97636.45;;;28.00;49.23
56825;BME280;42705;50.326;18.772;2023-08-07T13:46:38;97637.30;;;27.72;49.36
56825;BME280;42705;50.326;18.772;2023-08-07T13:52:01;97638.48;;;28.06;46.62
56825;BME280;42705;50.326;18.772;2023-08-07T13:57:23;97640.30;;;28.23;47.25
56825;BME280;42705;50.326;18.772;2023-08-07T14:02:45;97648.15;;;26.39;48.84
56825;BME280;42705;50.326;18.772;2023-08-07T14:08:07;97650.27;;;23.98;51.10
56825;BME280;42705;50.326;18.772;2023-08-07T14:13:32;97664.18;;;21.76;53.14
56825;BME280;42705;50.326;18.772;2023-08-07T14:18:54;97667.27;;;19.96;55.86
56825;BME280;42705;50.326;18.772;2023-08-07T14:24:16;97668.29;;;19.78;57.22
56825;BME280;42705;50.326;18.772;2023-08-07T14:29:39;97672.84;;;20.04;57.80
56825;BME280;42705;50.326;18.772;2023-08-07T14:35:01;97670.95;;;19.07;59.71
56825;BME280;42705;50.326;18.772;2023-08-07T14:40:23;97681.05;;;18.15;61.88
56825;BME280;42705;50.326;18.772;2023-08-07T14:45:45;97690.11;;;17.49;63.56
56825;BME280;42705;50.326;18.772;2023-08-07T14:51:07;97702.08;;;16.87;65.61
56825;BME280;42705;50.326;18.772;2023-08-07T14:56:30;97697.45;;;16.41;67.51
56825;BME280;42705;50.326;18.772;2023-08-07T15:01:52;97700.98;;;16.09;68.96
56825;BME280;42705;50.326;18.772;2023-08-07T15:07:14;97701.60;;;15.90;70.10
56825;BME280;42705;50.326;18.772;2023-08-07T15:12:36;97712.28;;;15.87;71.04
56825;BME280;42705;50.326;18.772;2023-08-07T15:17:59;97713.80;;;16.04;71.13
56825;BME280;42705;50.326;18.772;2023-08-07T15:23:26;97721.71;;;16.65;70.91
56825;BME280;42705;50.326;18.772;2023-08-07T15:28:49;97724.88;;;18.44;68.74
56825;BME280;42705;50.326;18.772;2023-08-07T15:34:11;97714.45;;;20.45;65.81
56825;BME280;42705;50.326;18.772;2023-08-07T15:39:33;97714.27;;;20.74;64.64
56825;BME280;42705;50.326;18.772;2023-08-07T15:44:55;97728.75;;;20.26;64.15
56825;BME280;42705;50.326;18.772;2023-08-07T15:50:17;97741.73;;;20.04;63.81
56825;BME280;42705;50.326;18.772;2023-08-07T15:55:39;97745.48;;;20.78;62.83
56825;BME280;42705;50.326;18.772;2023-08-07T16:01:02;97743.16;;;22.59;60.23
56825;BME280;42705;50.326;18.772;2023-08-07T16:06:25;97746.11;;;21.96;58.57
56825;BME280;42705;50.326;18.772;2023-08-07T16:11:47;97746.98;;;20.93;59.24
56825;BME280;42705;50.326;18.772;2023-08-07T16:17:10;97755.42;;;20.29;59.36
56825;BME280;42705;50.326;18.772;2023-08-07T16:22:32;97757.28;;;19.57;60.28
56825;BME280;42705;50.326;18.772;2023-08-07T16:27:56;97756.46;;;19.95;60.53
56825;BME280;42705;50.326;18.772;2023-08-07T16:33:18;97765.58;;;19.28;61.05
56825;BME280;42705;50.326;18.772;2023-08-07T16:38:41;97766.14;;;18.51;61.99
56825;BME280;42705;50.326;18.772;2023-08-07T16:44:03;97788.69;;;17.88;63.02
56825;BME280;42705;50.326;18.772;2023-08-07T16:49:25;97797.41;;;17.33;64.05
56825;BME280;42705;50.326;18.772;2023-08-07T16:54:47;97792.56;;;16.85;65.20
56825;BME280;42705;50.326;18.772;2023-08-07T17:00:12;97788.72;;;16.65;66.12
56825;BME280;42705;50.326;18.772;2023-08-07T17:05:34;97794.10;;;16.73;66.44
56825;BME280;42705;50.326;18.772;2023-08-07T17:10:56;97795.91;;;16.75;66.78
56825;BME280;42705;50.326;18.772;2023-08-07T17:16:18;97803.33;;;16.79;67.15
56825;BME280;42705;50.326;18.772;2023-08-07T17:21:40;97807.39;;;16.95;67.43
56825;BME280;42705;50.326;18.772;2023-08-07T17:27:03;97809.90;;;16.99;67.55
56825;BME280;42705;50.326;18.772;2023-08-07T17:32:25;97814.30;;;16.85;67.81
56825;BME280;42705;50.326;18.772;2023-08-07T17:37:47;97817.78;;;16.68;68.27
56825;BME280;42705;50.326;18.772;2023-08-07T17:43:09;97819.02;;;16.47;69.04
56825;BME280;42705;50.326;18.772;2023-08-07T17:48:32;97826.23;;;16.27;69.83
56825;BME280;42705;50.326;18.772;2023-08-07T17:53:54;97825.92;;;16.13;70.77
56825;BME280;42705;50.326;18.772;2023-08-07T17:59:16;97825.46;;;15.96;71.59
56825;BME280;42705;50.326;18.772;2023-08-07T18:04:39;97827.86;;;15.76;72.48
56825;BME280;42705;50.326;18.772;2023-08-07T18:10:05;97829.27;;;15.62;73.05
56825;BME280;42705;50.326;18.772;2023-08-07T18:15:27;97828.38;;;15.47;73.61
56825;BME280;42705;50.326;18.772;2023-08-07T18:20:50;97835.94;;;15.30;74.08
56825;BME280;42705;50.326;18.772;2023-08-07T18:26:12;97837.52;;;15.18;74.42
56825;BME280;42705;50.326;18.772;2023-08-07T18:31:34;97851.20;;;15.12;74.45
56825;BME280;42705;50.326;18.772;2023-08-07T18:36:57;97853.87;;;15.05;74.87
56825;BME280;42705;50.326;18.772;2023-08-07T18:42:19;97862.34;;;14.98;74.84
56825;BME280;42705;50.326;18.772;2023-08-07T18:47:44;97870.96;;;14.94;75.09
56825;BME280;42705;50.326;18.772;2023-08-07T18:53:08;97881.19;;;14.94;75.21
56825;BME280;42705;50.326;18.772;2023-08-07T18:58:30;97886.11;;;14.92;75.29
56825;BME280;42705;50.326;18.772;2023-08-07T19:03:52;97888.39;;;14.92;75.55
56825;BME280;42705;50.326;18.772;2023-08-07T19:09:16;97897.59;;;14.95;75.60
56825;BME280;42705;50.326;18.772;2023-08-07T19:14:39;97906.73;;;14.93;75.94
56825;BME280;42705;50.326;18.772;2023-08-07T19:20:02;97911.29;;;14.93;75.60
56825;BME280;42705;50.326;18.772;2023-08-07T19:25:26;97915.66;;;14.94;75.39
56825;BME280;42705;50.326;18.772;2023-08-07T19:30:49;97915.23;;;14.93;75.09
56825;BME280;42705;50.326;18.772;2023-08-07T19:36:11;97927.02;;;14.97;74.97
56825;BME280;42705;50.326;18.772;2023-08-07T19:41:34;97942.28;;;14.96;74.81
56825;BME280;42705;50.326;18.772;2023-08-07T19:46:58;97957.30;;;14.91;74.80
56825;BME280;42705;50.326;18.772;2023-08-07T19:52:22;97958.63;;;14.90;74.98
56825;BME280;42705;50.326;18.772;2023-08-07T19:57:46;97962.83;;;14.88;74.90
56825;BME280;42705;50.326;18.772;2023-08-07T20:03:09;97967.83;;;14.86;75.19
56825;BME280;42705;50.326;18.772;2023-08-07T20:08:34;97966.54;;;14.87;75.12
56825;BME280;42705;50.326;18.772;2023-08-07T20:13:56;97972.02;;;14.84;75.20
56825;BME280;42705;50.326;18.772;2023-08-07T20:19:20;97969.73;;;14.73;75.30
56825;BME280;42705;50.326;18.772;2023-08-07T20:24:45;97975.02;;;14.68;75.50
56825;BME280;42705;50.326;18.772;2023-08-07T20:30:08;97979.45;;;14.63;75.83
56825;BME280;42705;50.326;18.772;2023-08-07T20:35:30;97985.17;;;14.57;75.93
56825;BME280;42705;50.326;18.772;2023-08-07T20:40:52;97993.20;;;14.55;76.01
56825;BME280;42705;50.326;18.772;2023-08-07T20:46:15;97991.65;;;14.52;76.05
56825;BME280;42705;50.326;18.772;2023-08-07T20:51:38;97997.75;;;14.45;75.92
56825;BME280;42705;50.326;18.772;2023-08-07T20:57:02;97998.13;;;14.44;76.14
56825;BME280;42705;50.326;18.772;2023-08-07T21:02:25;98004.34;;;14.46;76.50
56825;BME280;42705;50.326;18.772;2023-08-07T21:07:47;98009.06;;;14.45;76.50
56825;BME280;42705;50.326;18.772;2023-08-07T21:13:09;98014.05;;;14.38;76.37
56825;BME280;42705;50.326;18.772;2023-08-07T21:18:31;98016.20;;;14.32;76.76
56825;BME280;42705;50.326;18.772;2023-08-07T21:23:54;98025.80;;;14.26;76.79
56825;BME280;42705;50.326;18.772;2023-08-07T21:29:16;98020.91;;;14.23;77.02
56825;BME280;42705;50.326;18.772;2023-08-07T21:34:38;98023.27;;;14.22;77.01
56825;BME280;42705;50.326;18.772;2023-08-07T21:40:00;98027.14;;;14.20;76.88
56825;BME280;42705;50.326;18.772;2023-08-07T21:45:23;98033.10;;;14.22;76.65
56825;BME280;42705;50.326;18.772;2023-08-07T21:50:45;98034.34;;;14.22;76.76
56825;BME280;42705;50.326;18.772;2023-08-07T21:56:07;98043.01;;;14.19;76.54
56825;BME280;42705;50.326;18.772;2023-08-07T22:01:29;98047.46;;;14.21;76.55
56825;BME280;42705;50.326;18.772;2023-08-07T22:06:51;98055.82;;;14.26;76.54
56825;BME280;42705;50.326;18.772;2023-08-07T22:12:13;98063.41;;;14.23;76.23
56825;BME280;42705;50.326;18.772;2023-08-07T22:17:35;98071.19;;;14.19;76.46
56825;BME280;42705;50.326;18.772;2023-08-07T22:22:58;98071.41;;;14.15;76.47
56825;BME280;42705;50.326;18.772;2023-08-07T22:28:20;98074.44;;;14.09;76.32
56825;BME280;42705;50.326;18.772;2023-08-07T22:33:42;98080.23;;;14.06;76.53
56825;BME280;42705;50.326;18.772;2023-08-07T22:39:05;98086.71;;;14.06;76.77
56825;BME280;42705;50.326;18.772;2023-08-07T22:44:27;98087.88;;;14.00;76.45
56825;BME280;42705;50.326;18.772;2023-08-07T22:49:49;98094.60;;;13.98;76.62
56825;BME280;42705;50.326;18.772;2023-08-07T22:55:11;98100.60;;;13.96;76.62
56825;BME280;42705;50.326;18.772;2023-08-07T23:00:34;98113.88;;;13.93;76.76
56825;BME280;42705;50.326;18.772;2023-08-07T23:05:58;98114.56;;;13.93;76.61
56825;BME280;42705;50.326;18.772;2023-08-07T23:11:20;98109.03;;;13.93;76.57
56825;BME280;42705;50.326;18.772;2023-08-07T23:16:42;98114.52;;;13.91;76.41
56825;BME280;42705;50.326;18.772;2023-08-07T23:22:06;98120.35;;;13.91;76.38
56825;BME280;42705;50.326;18.772;2023-08-07T23:27:28;98121.46;;;13.90;76.34
56825;BME280;42705;50.326;18.772;2023-08-07T23:32:50;98121.63;;;13.86;76.34
56825;BME280;42705;50.326;18.772;2023-08-07T23:38:12;98124.09;;;13.83;76.21
56825;BME280;42705;50.326;18.772;2023-08-07T23:43:34;98132.80;;;13.79;76.11
56825;BME280;42705;50.326;18.772;2023-08-07T23:48:57;98137.78;;;13.73;76.16
56825;BME280;42705;50.326;18.772;2023-08-07T23:54:19;98138.22;;;13.73;76.01
56825;BME280;42705;50.326;18.772;2023-08-07T23:59:41;98145.59;;;13.73;76.08
